Dades meteomassalio
Diari Summary for Gener 11, 2017 Units:  Metric    English   Both
« Previous Day
Next Day »
Diari Semanal Mensual Anual Personalitzat
  Maxima: Minima: Mijana:
Temperatura: 15.6 °C 4.7 °C 10.5 °C
Rosada: 10.2 °C 2.6 °C 6.9 °C
Humitat: 87 % 68 % 79 %
Velocitat del vent: 51.8 km/h 0.0 km/h 18.3 km/h
Racha vent: 51.8 km/h - -
Vent:- - WNW
Pressio: 1026.0 hPa 1015.8 hPa -
Pluja: 0.0 mm    
Historical Graphs
 
 
Tabular Data for Gener 11, 2017
Time Temperature Dew Point Pressure Wind Wind Speed Wind Gust Humidity Rainfall Rate (Hourly) solar Conditions
00:02 7.8 °C 4.7 °C 1016.1 hPa NW 29.0 km/h 29.0 km/h 81 % 0.0 mm 0.0 W/m2 CLR
00:07 7.7 °C 4.7 °C 1015.8 hPa NW 25.7 km/h 25.7 km/h 81 % 0.0 mm 0.0 W/m2 CLR
00:12 7.7 °C 4.6 °C 1015.8 hPa NW 37.0 km/h 37.0 km/h 81 % 0.0 mm 0.0 W/m2 CLR
00:17 7.6 °C 4.7 °C 1015.8 hPa NW 38.9 km/h 38.9 km/h 82 % 0.0 mm 0.0 W/m2 CLR
00:23 7.6 °C 4.7 °C 1015.8 hPa NW 31.5 km/h 31.5 km/h 82 % 0.0 mm 0.0 W/m2 CLR
00:28 7.7 °C 4.8 °C 1015.8 hPa NW 37.0 km/h 37.0 km/h 82 % 0.0 mm 0.0 W/m2 CLR
00:33 7.7 °C 4.7 °C 1015.8 hPa NW 33.3 km/h 33.3 km/h 81 % 0.0 mm 0.0 W/m2 CLR
00:38 7.7 °C 4.7 °C 1015.8 hPa NW 31.5 km/h 31.5 km/h 81 % 0.0 mm 0.0 W/m2 CLR
00:43 7.7 °C 4.8 °C 1015.8 hPa NW 27.8 km/h 27.8 km/h 82 % 0.0 mm 0.0 W/m2 CLR
00:48 7.7 °C 4.8 °C 1015.8 hPa NW 37.0 km/h 37.0 km/h 82 % 0.0 mm 0.0 W/m2 CLR
00:53 7.7 °C 4.8 °C 1015.8 hPa NW 31.5 km/h 31.5 km/h 82 % 0.0 mm 0.0 W/m2 CLR
00:58 7.7 °C 4.8 °C 1015.8 hPa NW 24.1 km/h 24.1 km/h 82 % 0.0 mm 0.0 W/m2 CLR
01:03 7.7 °C 4.8 °C 1015.8 hPa NW 32.2 km/h 32.2 km/h 82 % 0.0 mm 0.0 W/m2 CLR
01:08 7.7 °C 4.8 °C 1016.1 hPa NW 37.0 km/h 37.0 km/h 82 % 0.0 mm 0.0 W/m2 CLR
01:13 7.7 °C 4.8 °C 1015.8 hPa NW 27.8 km/h 27.8 km/h 82 % 0.0 mm 0.0 W/m2 CLR
01:18 7.7 °C 4.8 °C 1016.1 hPa NW 35.2 km/h 35.2 km/h 82 % 0.0 mm 0.0 W/m2 CLR
01:23 7.8 °C 4.9 °C 1016.1 hPa NW 29.6 km/h 29.6 km/h 82 % 0.0 mm 0.0 W/m2 CLR
01:28 7.9 °C 5.1 °C 1016.5 hPa NW 37.0 km/h 37.0 km/h 82 % 0.0 mm 0.0 W/m2 CLR
01:33 8.0 °C 4.9 °C 1016.1 hPa NW 32.2 km/h 32.2 km/h 81 % 0.0 mm 0.0 W/m2 CLR
01:38 8.1 °C 5.0 °C 1016.1 hPa NW 38.9 km/h 38.9 km/h 81 % 0.0 mm 0.0 W/m2 CLR
01:43 8.1 °C 5.1 °C 1015.8 hPa NW 35.2 km/h 35.2 km/h 81 % 0.0 mm 0.0 W/m2 CLR
01:48 8.1 °C 5.1 °C 1016.1 hPa NW 40.7 km/h 40.7 km/h 81 % 0.0 mm 0.0 W/m2 CLR
01:53 8.2 °C 5.1 °C 1016.1 hPa NW 42.6 km/h 42.6 km/h 81 % 0.0 mm 0.0 W/m2 CLR
01:58 8.2 °C 5.1 °C 1016.1 hPa NW 42.6 km/h 42.6 km/h 81 % 0.0 mm 0.0 W/m2 CLR
02:03 8.1 °C 5.1 °C 1016.1 hPa NW 46.3 km/h 46.3 km/h 81 % 0.0 mm 0.0 W/m2 CLR
02:08 8.1 °C 5.1 °C 1016.1 hPa NW 51.8 km/h 51.8 km/h 81 % 0.0 mm 0.0 W/m2 CLR
02:13 8.2 °C 5.1 °C 1016.1 hPa NW 51.8 km/h 51.8 km/h 81 % 0.0 mm 0.0 W/m2 CLR
02:18 8.1 °C 5.0 °C 1016.5 hPa NW 40.7 km/h 40.7 km/h 81 % 0.0 mm 0.0 W/m2 CLR
02:23 8.1 °C 5.0 °C 1016.5 hPa NW 40.7 km/h 40.7 km/h 81 % 0.0 mm 0.0 W/m2 CLR
02:28 8.0 °C 4.9 °C 1016.5 hPa NW 37.0 km/h 37.0 km/h 81 % 0.0 mm 0.0 W/m2 CLR
02:33 8.0 °C 4.9 °C 1016.8 hPa NNW 37.0 km/h 37.0 km/h 81 % 0.0 mm 0.0 W/m2 CLR
02:38 7.9 °C 4.9 °C 1016.8 hPa NNW 37.0 km/h 37.0 km/h 81 % 0.0 mm 0.0 W/m2 CLR
02:43 7.9 °C 4.7 °C 1016.8 hPa NNW 40.7 km/h 40.7 km/h 80 % 0.0 mm 0.0 W/m2 CLR
02:48 7.9 °C 4.7 °C 1016.8 hPa NW 35.2 km/h 35.2 km/h 80 % 0.0 mm 0.0 W/m2 CLR
02:53 7.9 °C 4.7 °C 1017.2 hPa NNW 46.3 km/h 46.3 km/h 80 % 0.0 mm 0.0 W/m2 CLR
02:58 7.9 °C 4.7 °C 1017.5 hPa NNW 35.4 km/h 35.4 km/h 80 % 0.0 mm 0.0 W/m2 CLR
03:03 7.8 °C 4.6 °C 1017.5 hPa NNW 37.0 km/h 37.0 km/h 80 % 0.0 mm 0.0 W/m2 CLR
03:08 7.8 °C 4.6 °C 1017.5 hPa NNW 42.6 km/h 42.6 km/h 80 % 0.0 mm 0.0 W/m2 CLR
03:13 7.8 °C 4.6 °C 1017.5 hPa NW 42.6 km/h 42.6 km/h 80 % 0.0 mm 0.0 W/m2 CLR
03:18 7.8 °C 4.7 °C 1017.5 hPa NW 35.4 km/h 35.4 km/h 81 % 0.0 mm 0.0 W/m2 CLR
03:23 7.8 °C 4.7 °C 1017.5 hPa NW 33.3 km/h 33.3 km/h 81 % 0.0 mm 0.0 W/m2 CLR
03:28 7.7 °C 4.6 °C 1017.5 hPa NNW 40.7 km/h 40.7 km/h 81 % 0.0 mm 0.0 W/m2 CLR
03:33 7.7 °C 4.6 °C 1017.5 hPa NW 31.5 km/h 31.5 km/h 81 % 0.0 mm 0.0 W/m2 CLR
03:38 7.6 °C 4.6 °C 1017.8 hPa NW 38.9 km/h 38.9 km/h 81 % 0.0 mm 0.0 W/m2 CLR
03:43 7.6 °C 4.4 °C 1017.8 hPa NW 35.2 km/h 35.2 km/h 80 % 0.0 mm 0.0 W/m2 CLR
03:48 7.6 °C 4.6 °C 1017.8 hPa NW 40.7 km/h 40.7 km/h 81 % 0.0 mm 0.0 W/m2 CLR
03:53 7.5 °C 4.4 °C 1017.5 hPa NW 31.5 km/h 31.5 km/h 81 % 0.0 mm 0.0 W/m2 CLR
03:58 7.4 °C 4.4 °C 1017.5 hPa NNW 35.2 km/h 35.2 km/h 81 % 0.0 mm 0.0 W/m2 CLR
04:03 7.4 °C 4.4 °C 1017.5 hPa NNW 31.5 km/h 31.5 km/h 81 % 0.0 mm 0.0 W/m2 CLR
04:08 7.5 °C 4.3 °C 1017.5 hPa NNW 27.8 km/h 27.8 km/h 80 % 0.0 mm 0.0 W/m2 CLR
04:13 7.4 °C 4.2 °C 1017.5 hPa NNW 33.3 km/h 33.3 km/h 80 % 0.0 mm 0.0 W/m2 CLR
04:18 7.4 °C 4.2 °C 1017.8 hPa NW 25.7 km/h 25.7 km/h 80 % 0.0 mm 0.0 W/m2 CLR
04:23 7.4 °C 4.2 °C 1017.8 hPa NW 24.1 km/h 24.1 km/h 80 % 0.0 mm 0.0 W/m2 CLR
04:28 7.3 °C 4.1 °C 1018.2 hPa NW 20.9 km/h 20.9 km/h 80 % 0.0 mm 0.0 W/m2 CLR
04:33 7.3 °C 4.1 °C 1018.2 hPa NW 24.1 km/h 24.1 km/h 80 % 0.0 mm 0.0 W/m2 CLR
04:38 7.2 °C 4.0 °C 1018.2 hPa NW 20.4 km/h 20.4 km/h 80 % 0.0 mm 0.0 W/m2 CLR
04:43 7.2 °C 4.0 °C 1018.5 hPa WNW 14.8 km/h 14.8 km/h 80 % 0.0 mm 0.0 W/m2 CLR
04:48 7.1 °C 3.9 °C 1018.5 hPa WNW 12.9 km/h 12.9 km/h 80 % 0.0 mm 0.0 W/m2 CLR
04:53 7.1 °C 3.8 °C 1018.5 hPa WNW 16.7 km/h 16.7 km/h 80 % 0.0 mm 0.0 W/m2 CLR
04:58 6.9 °C 3.9 °C 1018.5 hPa WNW 16.1 km/h 16.1 km/h 81 % 0.0 mm 0.0 W/m2 CLR
05:03 6.8 °C 3.8 °C 1018.5 hPa WNW 16.1 km/h 16.1 km/h 81 % 0.0 mm 0.0 W/m2 CLR
05:08 6.8 °C 3.8 °C 1018.5 hPa WNW 14.8 km/h 14.8 km/h 81 % 0.0 mm 0.0 W/m2 CLR
05:14 6.8 °C 3.9 °C 1018.5 hPa WNW 14.5 km/h 14.5 km/h 82 % 0.0 mm 0.0 W/m2 CLR
05:19 6.8 °C 4.0 °C 1018.8 hPa WNW 16.7 km/h 16.7 km/h 82 % 0.0 mm 0.0 W/m2 CLR
05:24 6.8 °C 3.9 °C 1018.8 hPa WNW 18.5 km/h 18.5 km/h 82 % 0.0 mm 0.0 W/m2 CLR
05:29 6.8 °C 3.9 °C 1018.8 hPa WNW 16.7 km/h 16.7 km/h 82 % 0.0 mm 0.0 W/m2 CLR
05:34 6.9 °C 4.0 °C 1019.2 hPa WNW 20.4 km/h 20.4 km/h 82 % 0.0 mm 0.0 W/m2 CLR
05:39 6.9 °C 4.0 °C 1019.2 hPa WNW 19.3 km/h 19.3 km/h 82 % 0.0 mm 0.0 W/m2 CLR
05:44 6.9 °C 4.0 °C 1019.2 hPa WNW 22.2 km/h 22.2 km/h 82 % 0.0 mm 0.0 W/m2 CLR
05:49 6.9 °C 3.9 °C 1019.2 hPa WNW 20.4 km/h 20.4 km/h 81 % 0.0 mm 0.0 W/m2 CLR
05:54 7.0 °C 3.9 °C 1019.2 hPa WNW 16.7 km/h 16.7 km/h 81 % 0.0 mm 0.0 W/m2 CLR
05:59 7.0 °C 3.9 °C 1019.2 hPa WNW 18.5 km/h 18.5 km/h 81 % 0.0 mm 0.0 W/m2 CLR
06:04 6.9 °C 3.9 °C 1019.2 hPa WNW 16.7 km/h 16.7 km/h 81 % 0.0 mm 0.0 W/m2 CLR
06:09 6.8 °C 3.8 °C 1019.5 hPa WNW 20.4 km/h 20.4 km/h 81 % 0.0 mm 0.0 W/m2 CLR
06:14 6.8 °C 3.7 °C 1019.5 hPa WNW 18.5 km/h 18.5 km/h 81 % 0.0 mm 0.0 W/m2 CLR
06:19 6.9 °C 3.8 °C 1019.5 hPa WNW 16.7 km/h 16.7 km/h 81 % 0.0 mm 0.0 W/m2 CLR
06:24 7.0 °C 3.9 °C 1019.5 hPa WNW 16.7 km/h 16.7 km/h 81 % 0.0 mm 0.0 W/m2 CLR
06:29 7.1 °C 3.8 °C 1019.9 hPa West 14.8 km/h 14.8 km/h 80 % 0.0 mm 0.0 W/m2 CLR
06:34 7.1 °C 3.8 °C 1019.9 hPa West 7.4 km/h 7.4 km/h 80 % 0.0 mm 0.0 W/m2 CLR
06:39 6.8 °C 3.4 °C 1020.2 hPa Calm     79 % 0.0 mm 0.0 W/m2 CLR
06:44 6.3 °C 3.3 °C 1020.2 hPa WSW 11.3 km/h 11.4 km/h 81 % 0.0 mm 0.0 W/m2 CLR
06:49 6.0 °C 3.3 °C 1020.2 hPa WSW 13.0 km/h 13.0 km/h 83 % 0.0 mm 0.0 W/m2 CLR
06:54 5.9 °C 3.2 °C 1019.9 hPa WSW 14.8 km/h 14.8 km/h 83 % 0.0 mm 0.0 W/m2 CLR
06:59 5.8 °C 3.3 °C 1019.9 hPa WSW 16.7 km/h 16.7 km/h 84 % 0.0 mm 0.0 W/m2 CLR
07:04 5.8 °C 3.3 °C 1020.2 hPa WSW 13.0 km/h 13.0 km/h 84 % 0.0 mm 0.0 W/m2 CLR
07:09 5.8 °C 3.3 °C 1020.2 hPa WSW 11.1 km/h 11.1 km/h 84 % 0.0 mm 0.0 W/m2 CLR
07:14 5.8 °C 3.3 °C 1020.5 hPa WSW 11.3 km/h 11.3 km/h 84 % 0.0 mm 0.0 W/m2 CLR
07:19 5.7 °C 3.2 °C 1020.5 hPa WSW 9.3 km/h 9.3 km/h 84 % 0.0 mm 0.0 W/m2 CLR
07:24 5.6 °C 3.1 °C 1020.5 hPa WSW 9.3 km/h 9.3 km/h 84 % 0.0 mm 0.0 W/m2 CLR
07:29 5.3 °C 2.8 °C 1020.5 hPa Calm     84 % 0.0 mm 0.0 W/m2 CLR
07:34 5.1 °C 2.8 °C 1020.9 hPa Calm     85 % 0.0 mm 0.0 W/m2 CLR
07:39 4.9 °C 2.8 °C 1020.9 hPa Calm     86 % 0.0 mm 0.0 W/m2 CLR
07:44 4.9 °C 2.7 °C 1020.9 hPa Calm     86 % 0.0 mm 0.0 W/m2 CLR
07:49 4.8 °C 2.6 °C 1020.9 hPa Calm     86 % 0.0 mm 0.0 W/m2 CLR
07:54 4.7 °C 2.6 °C 1020.9 hPa Calm     86 % 0.0 mm 0.0 W/m2 CLR
07:59 4.7 °C 2.7 °C 1020.9 hPa Calm     87 % 0.0 mm 0.0 W/m2 CLR
08:04 4.8 °C 2.8 °C 1021.2 hPa Calm     87 % 0.0 mm 0.0 W/m2 CLR
08:09 4.8 °C 2.8 °C 1021.2 hPa Calm     87 % 0.0 mm 0.0 W/m2 CLR
08:14 4.9 °C 2.9 °C 1021.2 hPa Calm     87 % 0.0 mm 0.0 W/m2 CLR
08:19 5.1 °C 3.1 °C 1021.6 hPa Calm     87 % 0.0 mm 5.0 W/m2 CLR
08:24 5.2 °C 3.2 °C 1021.2 hPa Calm     87 % 0.0 mm 5.0 W/m2 BKN
08:29 5.4 °C 3.4 °C 1021.6 hPa Calm     87 % 0.0 mm 7.0 W/m2 BKN
08:34 5.6 °C 3.6 °C 1021.2 hPa Calm     87 % 0.0 mm 12.0 W/m2 BKN
08:39 6.0 °C 3.8 °C 1021.6 hPa Calm     86 % 0.0 mm 16.0 W/m2 BKN
08:44 6.6 °C 4.3 °C 1021.6 hPa West 7.4 km/h 7.4 km/h 85 % 0.0 mm 18.0 W/m2 BKN
08:49 6.9 °C 4.4 °C 1021.6 hPa West 11.1 km/h 11.1 km/h 84 % 0.0 mm 18.0 W/m2 BKN
08:54 7.2 °C 4.5 °C 1021.6 hPa West 7.4 km/h   83 % 0.0 mm 21.0 W/m2 BKN
08:59 7.4 °C 4.5 °C 1021.9 hPa Calm     82 % 0.0 mm 25.0 W/m2 BKN
09:04 7.4 °C 4.6 °C 1021.9 hPa Calm     82 % 0.0 mm 28.0 W/m2 BKN
09:09 7.5 °C 4.6 °C 1021.9 hPa Calm     82 % 0.0 mm 35.0 W/m2 BKN
09:14 7.5 °C 4.6 °C 1021.9 hPa Calm     82 % 0.0 mm 40.0 W/m2 BKN
09:19 7.5 °C 4.6 °C 1021.9 hPa West 16.7 km/h 16.7 km/h 82 % 0.0 mm 47.0 W/m2 BKN
09:24 7.7 °C 4.8 °C 1021.9 hPa WSW 14.5 km/h 14.5 km/h 82 % 0.0 mm 58.0 W/m2 BKN
09:29 7.8 °C 4.7 °C 1021.9 hPa West 16.7 km/h 16.7 km/h 81 % 0.0 mm 56.0 W/m2 BKN
09:34 7.8 °C 4.8 °C 1022.2 hPa WNW 11.3 km/h 11.3 km/h 81 % 0.0 mm 58.0 W/m2 BKN
09:39 7.9 °C 4.8 °C 1022.2 hPa WNW 14.8 km/h 14.8 km/h 81 % 0.0 mm 51.0 W/m2 BKN
09:44 7.9 °C 4.9 °C 1022.2 hPa West 9.3 km/h 9.3 km/h 81 % 0.0 mm 72.0 W/m2 BKN
09:49 8.0 °C 4.9 °C 1022.6 hPa Calm     81 % 0.0 mm 95.0 W/m2 BKN
09:54 8.1 °C 5.0 °C 1022.6 hPa Calm     81 % 0.0 mm 70.0 W/m2 BKN
09:59 8.0 °C 4.9 °C 1022.9 hPa Calm     81 % 0.0 mm 83.0 W/m2 BKN
10:04 7.9 °C 4.9 °C 1022.6 hPa Calm     81 % 0.0 mm 97.0 W/m2 BKN
10:09 8.0 °C 5.1 °C 1022.9 hPa Calm     82 % 0.0 mm 95.0 W/m2 BKN
10:14 8.1 °C 5.2 °C 1022.9 hPa Calm     82 % 0.0 mm 91.0 W/m2 BKN
10:19 8.1 °C 5.2 °C 1022.6 hPa Calm     82 % 0.0 mm 100.0 W/m2 BKN
10:24 8.3 °C 5.4 °C 1022.6 hPa Calm     82 % 0.0 mm 97.0 W/m2 BKN
10:29 8.4 °C 5.5 °C 1022.6 hPa Calm     82 % 0.0 mm 91.0 W/m2 BKN
10:34 8.5 °C 5.6 °C 1022.6 hPa Calm     82 % 0.0 mm 86.0 W/m2 BKN
10:40 8.6 °C 5.7 °C 1022.9 hPa WSW 3.7 km/h 3.7 km/h 82 % 0.0 mm 95.0 W/m2 BKN
10:45 8.8 °C 5.7 °C 1022.9 hPa WSW 5.6 km/h 5.6 km/h 81 % 0.0 mm 127.0 W/m2 BKN
10:50 8.9 °C 5.8 °C 1023.2 hPa Calm     81 % 0.0 mm 160.0 W/m2 BKN
10:55 9.1 °C 6.0 °C 1023.2 hPa Calm     81 % 0.0 mm 128.0 W/m2 BKN
11:00 9.3 °C 6.2 °C 1023.2 hPa Calm     81 % 0.0 mm 137.0 W/m2 BKN
11:05 9.4 °C 6.3 °C 1023.2 hPa WSW 3.2 km/h 3.2 km/h 81 % 0.0 mm 123.0 W/m2 BKN
11:10 9.6 °C 6.3 °C 1023.2 hPa WSW 4.8 km/h 4.8 km/h 80 % 0.0 mm 125.0 W/m2 BKN
11:15 9.8 °C 6.5 °C 1023.2 hPa West 5.6 km/h 5.6 km/h 80 % 0.0 mm 227.0 W/m2 BKN
11:20 9.9 °C 6.7 °C 1023.2 hPa West 7.4 km/h 7.4 km/h 80 % 0.0 mm 174.0 W/m2 BKN
11:25 10.2 °C 6.9 °C 1023.2 hPa West 13.0 km/h 13.0 km/h 80 % 0.0 mm 441.0 W/m2 BKN
11:30 10.7 °C 7.3 °C 1023.2 hPa WSW 9.3 km/h 9.3 km/h 80 % 0.0 mm 418.0 W/m2 SCT
11:35 11.2 °C 7.4 °C 1023.2 hPa West 18.5 km/h 18.5 km/h 78 % 0.0 mm 540.0 W/m2 CLR
11:40 11.7 °C 7.9 °C 1023.2 hPa WNW 20.4 km/h 20.4 km/h 78 % 0.0 mm 564.0 W/m2 CLR
11:45 12.0 °C 7.9 °C 1023.2 hPa WNW 18.5 km/h 18.5 km/h 76 % 0.0 mm 336.0 W/m2 CLR
11:50 11.8 °C 7.9 °C 1023.2 hPa WNW 24.1 km/h 24.1 km/h 77 % 0.0 mm 287.0 W/m2 FEW
11:55 11.8 °C 7.7 °C 1023.2 hPa WNW 18.5 km/h 18.5 km/h 76 % 0.0 mm 253.0 W/m2 SCT
12:00 11.8 °C 7.9 °C 1023.2 hPa WNW 18.5 km/h 18.5 km/h 77 % 0.0 mm 302.0 W/m2 SCT
12:05 11.9 °C 8.1 °C 1022.9 hPa WNW 14.8 km/h 14.8 km/h 77 % 0.0 mm 294.0 W/m2 SCT
12:10 12.2 °C 8.3 °C 1022.9 hPa WNW 14.8 km/h 14.8 km/h 77 % 0.0 mm 388.0 W/m2 SCT
12:15 12.4 °C 8.3 °C 1022.9 hPa WNW 20.4 km/h 20.4 km/h 76 % 0.0 mm 341.0 W/m2 SCT
12:20 12.4 °C 8.3 °C 1022.6 hPa WNW 31.5 km/h 31.5 km/h 76 % 0.0 mm 244.0 W/m2 SCT
12:25 12.3 °C 8.2 °C 1022.6 hPa WNW 27.8 km/h 27.8 km/h 76 % 0.0 mm 218.0 W/m2 SCT
12:30 12.3 °C 8.3 °C 1022.6 hPa WNW 18.5 km/h 18.5 km/h 77 % 0.0 mm 244.0 W/m2 BKN
12:35 12.4 °C 8.4 °C 1022.6 hPa WNW 18.5 km/h 18.5 km/h 77 % 0.0 mm 237.0 W/m2 BKN
12:40 12.5 °C 8.4 °C 1022.9 hPa WNW 18.5 km/h 18.5 km/h 76 % 0.0 mm 207.0 W/m2 BKN
12:45 12.6 °C 8.5 °C 1022.6 hPa WNW 18.5 km/h 18.5 km/h 76 % 0.0 mm 155.0 W/m2 BKN
12:50 12.7 °C 8.6 °C 1022.6 hPa WNW 18.5 km/h 18.5 km/h 76 % 0.0 mm 225.0 W/m2 BKN
12:55 13.2 °C 8.8 °C 1022.6 hPa WNW 20.9 km/h 20.9 km/h 75 % 0.0 mm 483.0 W/m2 SCT
13:00 13.4 °C 8.7 °C 1022.6 hPa WNW 27.8 km/h 27.8 km/h 73 % 0.0 mm 425.0 W/m2 CLR
13:05 13.4 °C 8.7 °C 1022.6 hPa WNW 24.1 km/h 24.1 km/h 73 % 0.0 mm 425.0 W/m2 CLR
13:10 13.7 °C 9.1 °C 1022.6 hPa WNW 20.4 km/h 20.4 km/h 74 % 0.0 mm 490.0 W/m2 CLR
13:15 13.8 °C 9.1 °C 1022.2 hPa WNW 20.4 km/h 20.4 km/h 73 % 0.0 mm 492.0 W/m2 CLR
13:20 14.0 °C 9.1 °C 1022.2 hPa NW 25.9 km/h 25.9 km/h 72 % 0.0 mm 494.0 W/m2 CLR
13:25 14.0 °C 9.1 °C 1022.2 hPa NW 22.2 km/h 22.2 km/h 72 % 0.0 mm 522.0 W/m2 CLR
13:30 13.9 °C 9.0 °C 1022.2 hPa NW 29.6 km/h 29.6 km/h 72 % 0.0 mm 524.0 W/m2 CLR
13:35 14.1 °C 9.1 °C 1022.2 hPa NW 25.9 km/h 25.9 km/h 72 % 0.0 mm 492.0 W/m2 CLR
13:40 14.3 °C 9.5 °C 1021.9 hPa WNW 11.3 km/h 11.3 km/h 73 % 0.0 mm 522.0 W/m2 CLR
13:45 14.4 °C 9.4 °C 1021.9 hPa NW 18.5 km/h 18.5 km/h 72 % 0.0 mm 130.0 W/m2 CLR
13:50 14.3 °C 9.3 °C 1021.9 hPa NW 18.5 km/h 18.5 km/h 72 % 0.0 mm 476.0 W/m2 SCT
13:55 14.5 °C 9.3 °C 1021.6 hPa NW 22.2 km/h 22.2 km/h 71 % 0.0 mm 508.0 W/m2 SCT
14:00 14.6 °C 9.4 °C 1021.9 hPa NW 22.2 km/h 22.2 km/h 71 % 0.0 mm 504.0 W/m2 CLR
14:05 14.6 °C 9.2 °C 1021.6 hPa NW 18.5 km/h 18.5 km/h 70 % 0.0 mm 151.0 W/m2 CLR
14:10 14.5 °C 9.3 °C 1021.6 hPa NW 22.5 km/h 22.5 km/h 71 % 0.0 mm 67.0 W/m2 CLR
14:15 14.5 °C 9.3 °C 1021.6 hPa NW 18.5 km/h 18.5 km/h 71 % 0.0 mm 70.0 W/m2 BKN
14:20 14.7 °C 9.4 °C 1021.6 hPa WNW 20.4 km/h 20.4 km/h 71 % 0.0 mm 459.0 W/m2 SCT
14:25 14.9 °C 9.2 °C 1021.6 hPa NW 24.1 km/h 24.1 km/h 69 % 0.0 mm 425.0 W/m2 CLR
14:30 15.2 °C 9.5 °C 1021.6 hPa NW 24.1 km/h 24.1 km/h 69 % 0.0 mm 415.0 W/m2 CLR
14:35 15.3 °C 9.4 °C 1021.6 hPa NW 16.7 km/h 16.7 km/h 68 % 0.0 mm 420.0 W/m2 CLR
14:40 15.2 °C 9.3 °C 1021.6 hPa NW 18.5 km/h 18.5 km/h 68 % 0.0 mm 62.0 W/m2 FEW
14:45 15.0 °C 9.3 °C 1021.6 hPa NW 18.5 km/h 18.5 km/h 69 % 0.0 mm 417.0 W/m2 SCT
14:50 14.9 °C 9.2 °C 1021.6 hPa NW 20.4 km/h 20.4 km/h 69 % 0.0 mm 62.0 W/m2 BKN
14:55 14.9 °C 9.4 °C 1021.6 hPa NW 16.7 km/h 16.7 km/h 70 % 0.0 mm 79.0 W/m2 SCT
15:00 15.3 °C 9.6 °C 1021.6 hPa NW 22.2 km/h 22.2 km/h 69 % 0.0 mm 480.0 W/m2 FEW
15:05 15.4 °C 9.7 °C 1021.2 hPa NW 22.5 km/h 22.5 km/h 69 % 0.0 mm 53.0 W/m2 SCT
15:10 15.2 °C 9.5 °C 1021.6 hPa NW 18.5 km/h 18.5 km/h 69 % 0.0 mm 345.0 W/m2 SCT
15:15 15.3 °C 9.7 °C 1021.2 hPa NW 20.4 km/h 20.4 km/h 69 % 0.0 mm 350.0 W/m2 FEW
15:20 15.4 °C 9.8 °C 1021.6 hPa WNW 20.4 km/h 20.4 km/h 69 % 0.0 mm 346.0 W/m2 CLR
15:25 15.6 °C 9.9 °C 1021.6 hPa NW 22.2 km/h 22.2 km/h 69 % 0.0 mm 313.0 W/m2 CLR
15:30 15.6 °C 10.1 °C 1021.6 hPa NW 33.3 km/h 33.3 km/h 70 % 0.0 mm 306.0 W/m2 CLR
15:35 15.2 °C 9.7 °C 1021.6 hPa NW 24.1 km/h 24.1 km/h 70 % 0.0 mm 35.0 W/m2 FEW
15:40 14.7 °C 9.7 °C 1021.6 hPa NW 20.9 km/h 20.9 km/h 72 % 0.0 mm 49.0 W/m2 BKN
15:45 14.8 °C 10.0 °C 1021.6 hPa NW 22.2 km/h 22.2 km/h 73 % 0.0 mm 271.0 W/m2 BKN
15:50 15.0 °C 10.0 °C 1021.6 hPa NW 22.2 km/h 22.2 km/h 72 % 0.0 mm 255.0 W/m2 FEW
15:56 15.2 °C 10.2 °C 1021.6 hPa NNW 16.7 km/h 16.7 km/h 72 % 0.0 mm 248.0 W/m2 CLR
16:01 15.2 °C 9.9 °C 1021.6 hPa NW 25.9 km/h 25.9 km/h 71 % 0.0 mm 234.0 W/m2 CLR
16:06 15.2 °C 10.2 °C 1021.6 hPa NW 18.5 km/h 18.5 km/h 72 % 0.0 mm 220.0 W/m2 CLR
16:11 15.2 °C 10.2 °C 1021.6 hPa NW 22.2 km/h 22.2 km/h 72 % 0.0 mm 206.0 W/m2 CLR
16:16 15.2 °C 10.2 °C 1021.6 hPa NW 22.5 km/h 22.5 km/h 72 % 0.0 mm 193.0 W/m2 CLR
16:21 15.1 °C 9.8 °C 1021.9 hPa NW 18.5 km/h 18.5 km/h 71 % 0.0 mm 30.0 W/m2 CLR
16:26 14.8 °C 10.1 °C 1021.9 hPa NW 18.5 km/h 18.5 km/h 73 % 0.0 mm 121.0 W/m2 BKN
16:31 14.8 °C 10.1 °C 1021.9 hPa NW 16.7 km/h 16.7 km/h 73 % 0.0 mm 155.0 W/m2 SCT
16:36 14.9 °C 10.2 °C 1021.9 hPa NW 16.7 km/h 16.7 km/h 73 % 0.0 mm 144.0 W/m2 CLR
16:41 14.9 °C 10.1 °C 1021.9 hPa NW 20.4 km/h 20.4 km/h 73 % 0.0 mm 32.0 W/m2 CLR
16:46 14.8 °C 10.0 °C 1022.2 hPa NW 14.5 km/h 14.5 km/h 73 % 0.0 mm 32.0 W/m2 SCT
16:51 14.6 °C 10.0 °C 1022.2 hPa NW 14.8 km/h 14.8 km/h 74 % 0.0 mm 26.0 W/m2 BKN
16:56 14.5 °C 9.9 °C 1022.2 hPa Calm     74 % 0.0 mm 19.0 W/m2 SCT
17:01 14.4 °C 10.0 °C 1022.2 hPa Calm     75 % 0.0 mm 25.0 W/m2 CLR
17:06 14.3 °C 9.9 °C 1022.2 hPa Calm     75 % 0.0 mm 28.0 W/m2 OVC
17:11 14.3 °C 9.9 °C 1022.2 hPa Calm     75 % 0.0 mm 25.0 W/m2 OVC
17:16 14.3 °C 9.9 °C 1022.2 hPa Calm     75 % 0.0 mm 26.0 W/m2 OVC
17:21 14.3 °C 9.9 °C 1022.2 hPa WNW 11.1 km/h 11.1 km/h 75 % 0.0 mm 14.0 W/m2 OVC
17:26 14.3 °C 9.9 °C 1022.2 hPa WNW 13.0 km/h 13.0 km/h 75 % 0.0 mm 12.0 W/m2 OVC
17:31 14.2 °C 9.8 °C 1022.6 hPa Calm     75 % 0.0 mm 11.0 W/m2 OVC
17:36 14.0 °C 9.6 °C 1022.6 hPa Calm     75 % 0.0 mm 9.0 W/m2 OVC
17:41 13.9 °C 9.7 °C 1022.6 hPa Calm   0.2 km/h 76 % 0.0 mm 5.0 W/m2 OVC
17:46 13.9 °C 9.7 °C 1022.6 hPa WNW 1.9 km/h 1.9 km/h 76 % 0.0 mm 0.0 W/m2 OVC
17:51 13.9 °C 9.7 °C 1022.6 hPa Calm     76 % 0.0 mm 0.0 W/m2 OVC
17:56 13.9 °C 9.8 °C 1022.6 hPa West 3.7 km/h   76 % 0.0 mm 0.0 W/m2 CLR
18:01 13.9 °C 9.8 °C 1022.6 hPa Calm     76 % 0.0 mm 0.0 W/m2 CLR
18:06 13.9 °C 9.8 °C 1022.6 hPa WNW 3.2 km/h 3.2 km/h 76 % 0.0 mm 0.0 W/m2 CLR
18:11 14.0 °C 9.8 °C 1022.9 hPa West 3.2 km/h 3.4 km/h 76 % 0.0 mm 0.0 W/m2 CLR
18:16 14.1 °C 9.7 °C 1022.9 hPa WNW 5.6 km/h 5.6 km/h 75 % 0.0 mm 0.0 W/m2 CLR
18:21 14.1 °C 9.7 °C 1022.9 hPa Calm     75 % 0.0 mm 0.0 W/m2 CLR
18:26 14.0 °C 9.6 °C 1022.9 hPa West 5.6 km/h 5.6 km/h 75 % 0.0 mm 0.0 W/m2 CLR
18:31 14.0 °C 9.6 °C 1023.2 hPa West 7.4 km/h 7.4 km/h 75 % 0.0 mm 0.0 W/m2 CLR
18:36 14.1 °C 9.7 °C 1023.2 hPa West 9.3 km/h 9.3 km/h 75 % 0.0 mm 0.0 W/m2 CLR
18:41 14.0 °C 9.6 °C 1023.2 hPa West 16.7 km/h 16.7 km/h 75 % 0.0 mm 0.0 W/m2 CLR
18:46 14.0 °C 9.6 °C 1023.2 hPa West 18.5 km/h 18.5 km/h 75 % 0.0 mm 0.0 W/m2 CLR
18:51 14.0 °C 9.6 °C 1023.2 hPa West 19.3 km/h 19.3 km/h 75 % 0.0 mm 0.0 W/m2 CLR
18:56 13.9 °C 9.6 °C 1023.2 hPa West 22.2 km/h 22.2 km/h 75 % 0.0 mm 0.0 W/m2 CLR
19:01 13.9 °C 9.7 °C 1023.6 hPa WNW 18.5 km/h 18.5 km/h 76 % 0.0 mm 0.0 W/m2 CLR
19:06 13.8 °C 9.6 °C 1023.2 hPa WNW 20.4 km/h 20.4 km/h 76 % 0.0 mm 0.0 W/m2 CLR
19:11 13.6 °C 9.7 °C 1023.6 hPa WNW 22.2 km/h 22.2 km/h 77 % 0.0 mm 0.0 W/m2 CLR
19:16 13.4 °C 9.5 °C 1023.6 hPa WNW 18.5 km/h 18.5 km/h 77 % 0.0 mm 0.0 W/m2 CLR
19:21 13.3 °C 9.6 °C 1023.6 hPa WNW 22.2 km/h 22.2 km/h 78 % 0.0 mm 0.0 W/m2 CLR
19:26 13.2 °C 9.4 °C 1023.6 hPa WNW 22.2 km/h 22.2 km/h 78 % 0.0 mm 0.0 W/m2 CLR
19:31 13.2 °C 9.4 °C 1023.9 hPa WNW 16.7 km/h 16.7 km/h 78 % 0.0 mm 0.0 W/m2 CLR
19:36 13.2 °C 9.6 °C 1023.9 hPa WNW 22.2 km/h 22.2 km/h 79 % 0.0 mm 0.0 W/m2 CLR
19:41 13.2 °C 9.6 °C 1023.9 hPa West 16.7 km/h 16.7 km/h 79 % 0.0 mm 0.0 W/m2 CLR
19:46 13.1 °C 9.6 °C 1023.9 hPa WNW 18.5 km/h 18.5 km/h 79 % 0.0 mm 0.0 W/m2 CLR
19:51 13.1 °C 9.5 °C 1023.9 hPa WNW 18.5 km/h 18.5 km/h 79 % 0.0 mm 0.0 W/m2 CLR
19:56 13.0 °C 9.4 °C 1023.9 hPa WNW 18.5 km/h 18.5 km/h 79 % 0.0 mm 0.0 W/m2 CLR
20:01 12.9 °C 9.3 °C 1023.9 hPa WNW 25.9 km/h 25.9 km/h 79 % 0.0 mm 0.0 W/m2 CLR
20:06 13.0 °C 9.4 °C 1023.9 hPa WNW 20.4 km/h 20.4 km/h 79 % 0.0 mm 0.0 W/m2 CLR
20:11 12.9 °C 9.3 °C 1024.3 hPa West 18.5 km/h 18.5 km/h 79 % 0.0 mm 0.0 W/m2 CLR
20:16 12.9 °C 9.3 °C 1024.3 hPa West 18.5 km/h 18.5 km/h 79 % 0.0 mm 0.0 W/m2 CLR
20:21 12.8 °C 9.3 °C 1024.3 hPa West 18.5 km/h 18.5 km/h 79 % 0.0 mm 0.0 W/m2 CLR
20:26 12.8 °C 9.3 °C 1024.3 hPa West 18.5 km/h 18.5 km/h 79 % 0.0 mm 0.0 W/m2 CLR
20:31 12.8 °C 9.2 °C 1024.3 hPa West 20.4 km/h 20.4 km/h 79 % 0.0 mm 0.0 W/m2 CLR
20:36 12.8 °C 9.3 °C 1024.3 hPa West 18.5 km/h 18.5 km/h 79 % 0.0 mm 0.0 W/m2 CLR
20:41 12.7 °C 9.2 °C 1024.3 hPa West 16.7 km/h 16.7 km/h 79 % 0.0 mm 0.0 W/m2 CLR
20:46 12.7 °C 9.2 °C 1024.3 hPa West 18.5 km/h 18.5 km/h 79 % 0.0 mm 0.0 W/m2 CLR
20:51 12.6 °C 9.1 °C 1024.6 hPa West 13.0 km/h 13.0 km/h 79 % 0.0 mm 0.0 W/m2 CLR
20:56 12.6 °C 9.2 °C 1024.6 hPa West 20.4 km/h 20.4 km/h 80 % 0.0 mm 0.0 W/m2 CLR
21:01 12.6 °C 9.2 °C 1024.6 hPa West 18.5 km/h 18.5 km/h 80 % 0.0 mm 0.0 W/m2 CLR
21:06 12.4 °C 9.1 °C 1024.6 hPa West 14.8 km/h 14.8 km/h 80 % 0.0 mm 0.0 W/m2 CLR
21:11 12.3 °C 9.0 °C 1024.6 hPa WSW 14.8 km/h 14.8 km/h 80 % 0.0 mm 0.0 W/m2 CLR
21:16 12.3 °C 8.9 °C 1024.6 hPa West 14.8 km/h 14.8 km/h 80 % 0.0 mm 0.0 W/m2 CLR
21:21 12.3 °C 8.9 °C 1024.6 hPa West 7.4 km/h 7.4 km/h 80 % 0.0 mm 0.0 W/m2 CLR
21:26 12.3 °C 8.9 °C 1024.6 hPa West 14.8 km/h 14.8 km/h 80 % 0.0 mm 0.0 W/m2 CLR
21:31 12.2 °C 8.9 °C 1024.6 hPa West 13.0 km/h 13.0 km/h 80 % 0.0 mm 0.0 W/m2 CLR
21:36 12.3 °C 9.1 °C 1024.9 hPa West 20.4 km/h 20.4 km/h 81 % 0.0 mm 0.0 W/m2 CLR
21:41 12.2 °C 8.9 °C 1024.9 hPa West 14.8 km/h 14.8 km/h 80 % 0.0 mm 0.0 W/m2 CLR
21:46 12.2 °C 9.0 °C 1024.9 hPa West 14.8 km/h 14.8 km/h 81 % 0.0 mm 0.0 W/m2 CLR
21:51 12.1 °C 8.9 °C 1024.9 hPa WSW 16.7 km/h 16.7 km/h 81 % 0.0 mm 0.0 W/m2 CLR
21:56 11.9 °C 8.8 °C 1024.9 hPa WSW 13.0 km/h 13.0 km/h 81 % 0.0 mm 0.0 W/m2 CLR
22:01 11.8 °C 8.7 °C 1025.3 hPa WSW 14.8 km/h 14.8 km/h 81 % 0.0 mm 0.0 W/m2 CLR
22:06 11.8 °C 8.8 °C 1025.3 hPa WSW 11.1 km/h 11.1 km/h 82 % 0.0 mm 0.0 W/m2 CLR
22:11 11.8 °C 8.8 °C 1025.3 hPa West 20.4 km/h 20.4 km/h 82 % 0.0 mm 0.0 W/m2 CLR
22:16 12.1 °C 8.9 °C 1025.3 hPa West 20.4 km/h 20.4 km/h 81 % 0.0 mm 0.0 W/m2 CLR
22:21 12.2 °C 8.8 °C 1025.3 hPa West 25.9 km/h 25.9 km/h 80 % 0.0 mm 0.0 W/m2 CLR
22:26 12.1 °C 8.8 °C 1025.3 hPa West 19.3 km/h 19.3 km/h 80 % 0.0 mm 0.0 W/m2 CLR
22:31 12.2 °C 8.9 °C 1025.3 hPa West 20.4 km/h 20.4 km/h 80 % 0.0 mm 0.0 W/m2 CLR
22:36 12.3 °C 8.9 °C 1025.3 hPa West 20.4 km/h 20.4 km/h 80 % 0.0 mm 0.0 W/m2 CLR
22:41 12.3 °C 8.8 °C 1025.3 hPa West 18.5 km/h 18.5 km/h 79 % 0.0 mm 0.0 W/m2 CLR
22:47 12.3 °C 8.8 °C 1025.6 hPa West 24.1 km/h 24.1 km/h 79 % 0.0 mm 0.0 W/m2 CLR
22:52 12.4 °C 8.8 °C 1025.6 hPa West 20.4 km/h 20.4 km/h 79 % 0.0 mm 0.0 W/m2 CLR
22:57 12.4 °C 8.7 °C 1025.6 hPa West 20.4 km/h 20.4 km/h 78 % 0.0 mm 0.0 W/m2 CLR
23:02 12.4 °C 8.7 °C 1025.6 hPa West 29.6 km/h 29.6 km/h 78 % 0.0 mm 0.0 W/m2 CLR
23:07 12.5 °C 8.8 °C 1025.6 hPa West 24.1 km/h 24.1 km/h 78 % 0.0 mm 0.0 W/m2 CLR
23:12 12.4 °C 8.7 °C 1025.6 hPa West 20.4 km/h 20.4 km/h 78 % 0.0 mm 0.0 W/m2 CLR
23:17 12.4 °C 8.7 °C 1025.6 hPa West 20.4 km/h 20.4 km/h 78 % 0.0 mm 0.0 W/m2 CLR
23:22 12.2 °C 8.6 °C 1026.0 hPa West 14.8 km/h 14.8 km/h 79 % 0.0 mm 0.0 W/m2 CLR
23:27 12.0 °C 8.4 °C 1025.6 hPa West 19.3 km/h 19.3 km/h 79 % 0.0 mm 0.0 W/m2 CLR
23:32 12.2 °C 8.6 °C 1025.6 hPa West 25.9 km/h 25.9 km/h 79 % 0.0 mm 0.0 W/m2 CLR
23:37 12.2 °C 8.7 °C 1025.6 hPa West 25.9 km/h 25.9 km/h 79 % 0.0 mm 0.0 W/m2 CLR
23:42 12.3 °C 8.6 °C 1025.6 hPa West 24.1 km/h 24.1 km/h 78 % 0.0 mm 0.0 W/m2 CLR
23:47 12.3 °C 8.6 °C 1025.6 hPa West 24.1 km/h 24.1 km/h 78 % 0.0 mm 0.0 W/m2 CLR
23:52 12.2 °C 8.5 °C 1025.6 hPa West 22.2 km/h 22.2 km/h 78 % 0.0 mm 0.0 W/m2 CLR
23:57 12.1 °C 8.4 °C 1025.6 hPa West 22.2 km/h 22.2 km/h 78 % 0.0 mm 0.0 W/m2 CLR
Lo Temps de Massalio
Compliments of Weather Underground - 1.25 mb